Time;durP1;ratioP1;P1;durP2;ratioP2;P2;SDS_P1;SDS_P2;PMS_P1;PMS_P2;Temp;Humidity;BMP_temperature;BMP_pressure;BME280_temperature;BME280_humidity;BME280_pressure;Samples;Min_cycle;Max_cycle;Signal;HPM_P1;HPM_P2
2022/11/20 00:01:37;;;;;;;17.30;10.32;;;1.60;98.70;;;;;;6309963;22;20322;-84
2022/11/20 00:04:03;;;;;;;15.82;9.65;;;1.60;98.70;;;;;;6282905;22;20004;-83
2022/11/20 00:06:29;;;;;;;16.88;9.90;;;1.60;98.80;;;;;;6257550;22;20007;-84
2022/11/20 00:08:57;;;;;;;16.23;10.30;;;1.60;98.90;;;;;;6282791;22;20031;-84
2022/11/20 00:11:51;;;;;;;16.63;10.13;;;1.50;99.00;;;;;;6309015;22;20011;-84
2022/11/20 00:14:17;;;;;;;15.60;9.27;;;1.50;99.00;;;;;;6309175;22;20007;-84
2022/11/20 00:16:42;;;;;;;16.77;10.02;;;1.50;99.30;;;;;;6257502;22;20053;-84
2022/11/20 00:19:09;;;;;;;15.70;9.23;;;1.50;99.40;;;;;;6257247;22;20008;-84
2022/11/20 00:21:34;;;;;;;17.50;10.18;;;1.50;99.40;;;;;;6308557;22;20429;-84
2022/11/20 00:24:00;;;;;;;18.40;10.18;;;1.40;99.40;;;;;;6282850;22;20090;-84
2022/11/20 00:26:27;;;;;;;22.38;12.05;;;1.40;99.40;;;;;;6282947;22;20007;-84
2022/11/20 00:28:59;;;;;;;22.23;13.55;;;1.40;99.50;;;;;;6308465;22;20089;-84
2022/11/20 00:31:25;;;;;;;21.15;12.45;;;1.40;99.60;;;;;;6308545;22;20010;-83
2022/11/20 00:33:50;;;;;;;18.65;11.90;;;1.40;99.60;;;;;;6282753;22;20012;-83
2022/11/20 00:36:19;;;;;;;20.75;12.30;;;1.40;99.70;;;;;;6307950;22;20006;-83
2022/11/20 00:38:46;;;;;;;21.25;11.40;;;1.30;99.80;;;;;;6282813;22;20004;-83
2022/11/20 00:41:14;;;;;;;17.65;11.38;;;1.30;99.70;;;;;;6308428;22;20079;-83
2022/11/20 00:43:40;;;;;;;17.67;10.40;;;1.30;99.70;;;;;;6308630;22;20004;-83
2022/11/20 00:46:12;;;;;;;18.88;11.23;;;1.30;99.70;;;;;;6282903;22;20068;-83
2022/11/20 00:48:38;;;;;;;17.48;10.77;;;1.30;99.80;;;;;;6308612;22;20358;-83
2022/11/20 00:51:04;;;;;;;17.30;9.98;;;1.30;99.80;;;;;;6308476;22;20431;-84
2022/11/20 00:53:30;;;;;;;16.05;9.80;;;1.30;99.80;;;;;;6283047;22;20094;-83
2022/11/20 00:56:01;;;;;;;18.55;11.52;;;1.20;99.80;;;;;;6282582;22;20007;-83
2022/11/20 00:58:32;;;;;;;20.38;11.52;;;1.20;99.90;;;;;;6282630;22;20022;-83
2022/11/20 01:01:03;;;;;;;19.45;11.70;;;1.20;99.90;;;;;;6308137;22;20002;-83
2022/11/20 01:03:33;;;;;;;;;;;1.20;99.90;;;;;;6283586;22;20046;-84
2022/11/20 01:06:12;;;;;;;20.63;11.23;;;1.20;99.70;;;;;;6308973;22;19898;-83
2022/11/20 01:08:38;;;;;;;17.75;10.23;;;1.10;99.90;;;;;;6308310;22;20000;-83
2022/11/20 01:11:10;;;;;;;18.70;11.00;;;1.10;99.90;;;;;;6307083;22;20088;-82
2022/11/20 01:13:37;;;;;;;19.55;11.50;;;1.20;99.90;;;;;;6307771;22;20003;-82
2022/11/20 01:16:24;;;;;;;16.85;10.70;;;1.10;99.90;;;;;;6309024;22;20505;-82
2022/11/20 01:18:52;;;;;;;16.50;10.38;;;1.10;99.90;;;;;;6307737;22;20094;-83
2022/11/20 01:21:21;;;;;;;16.35;9.95;;;1.00;99.90;;;;;;6307941;22;20098;-82
2022/11/20 01:23:48;;;;;;;18.00;10.82;;;1.10;99.90;;;;;;6307965;22;20410;-83
2022/11/20 01:26:19;;;;;;;16.70;10.50;;;1.00;99.90;;;;;;6307904;22;20034;-84
2022/11/20 01:28:45;;;;;;;;;;;1.00;99.90;;;;;;6308782;22;19999;-84
2022/11/20 01:31:23;;;;;;;18.20;10.95;;;1.00;99.90;;;;;;6307967;22;19898;-83
2022/11/20 01:33:52;;;;;;;17.85;9.90;;;1.00;99.90;;;;;;6308083;22;20000;-84
2022/11/20 01:36:19;;;;;;;19.48;9.93;;;1.00;99.90;;;;;;6307973;22;20007;-84
2022/11/20 01:38:45;;;;;;;18.85;10.65;;;1.00;99.90;;;;;;6308042;22;20426;-83
2022/11/20 01:43:20;;;;;;;18.38;11.07;;;1.00;99.90;;;;;;6309173;22;20054;-83
2022/11/20 01:43:58;;;;;;;16.88;9.73;;;1.00;99.90;;;;;;6308292;22;20007;-83
2022/11/20 01:46:27;;;;;;;18.38;9.95;;;1.00;99.90;;;;;;6307915;22;20003;-82
2022/11/20 01:49:19;;;;;;;17.20;10.02;;;1.00;99.90;;;;;;6281654;22;20397;-83
2022/11/20 01:51:58;;;;;;;15.98;9.88;;;1.00;99.90;;;;;;6308800;22;20010;-82
2022/11/20 01:54:41;;;;;;;19.98;10.57;;;1.00;99.90;;;;;;6307874;22;20095;-83
2022/11/20 01:57:10;;;;;;;18.25;10.68;;;1.00;99.90;;;;;;6308890;22;20003;-89
2022/11/20 01:59:43;;;;;;;19.20;11.57;;;1.00;99.90;;;;;;6283358;22;20019;-89
2022/11/20 02:02:09;;;;;;;17.75;10.45;;;1.00;99.90;;;;;;6308862;22;19996;-89
2022/11/20 02:04:35;;;;;;;16.60;10.07;;;1.00;99.90;;;;;;6257245;22;20003;-89
2022/11/20 02:07:04;;;;;;;17.75;10.50;;;1.00;99.90;;;;;;6309184;22;19999;-85
2022/11/20 02:09:30;;;;;;;17.90;10.05;;;0.90;99.90;;;;;;6308388;22;20017;-83
2022/11/20 02:11:57;;;;;;;16.70;9.38;;;1.00;99.90;;;;;;6282350;22;20442;-83
2022/11/20 02:14:23;;;;;;;18.30;10.90;;;0.90;99.90;;;;;;6282430;22;20012;-82
2022/11/20 02:16:50;;;;;;;16.25;10.15;;;0.90;99.90;;;;;;6308050;22;20090;-82
2022/11/20 02:19:28;;;;;;;17.55;10.75;;;0.90;99.90;;;;;;6307294;22;20003;-82
2022/11/20 02:22:17;;;;;;;16.38;10.80;;;0.90;99.90;;;;;;6307299;22;20000;-82
2022/11/20 02:24:45;;;;;;;17.00;9.80;;;0.90;99.90;;;;;;6308009;22;19999;-88
2022/11/20 02:27:16;;;;;;;17.15;10.20;;;0.90;99.90;;;;;;6308892;22;20331;-88
2022/11/20 02:29:47;;;;;;;20.35;10.70;;;0.90;99.90;;;;;;6308669;22;20031;-89
2022/11/20 02:32:25;;;;;;;18.45;10.65;;;0.90;99.90;;;;;;6308980;22;20070;-89
2022/11/20 02:34:51;;;;;;;19.65;10.60;;;0.80;99.90;;;;;;6308861;22;20023;-89
2022/11/20 02:37:17;;;;;;;17.25;10.38;;;0.80;99.90;;;;;;6282331;22;20007;-88
2022/11/20 02:39:47;;;;;;;16.98;10.25;;;0.80;99.90;;;;;;6307889;22;20007;-89
2022/11/20 02:42:13;;;;;;;18.67;10.85;;;0.80;99.90;;;;;;6308251;22;20011;-88
2022/11/20 02:44:38;;;;;;;16.60;10.32;;;0.80;99.90;;;;;;6282530;22;20007;-88
2022/11/20 02:47:05;;;;;;;16.70;10.30;;;0.80;99.90;;;;;;6256511;22;20418;-88
2022/11/20 02:49:30;;;;;;;17.67;10.10;;;0.70;99.90;;;;;;6309019;22;20014;-89
2022/11/20 02:51:56;;;;;;;17.75;10.52;;;0.80;99.90;;;;;;6283704;22;20007;-87
2022/11/20 02:54:22;;;;;;;16.70;10.48;;;0.70;99.90;;;;;;6312049;22;20418;-88
2022/11/20 02:56:48;;;;;;;19.05;10.50;;;0.70;99.90;;;;;;6284985;22;20007;-89
2022/11/20 02:59:13;;;;;;;16.67;10.30;;;0.70;99.90;;;;;;6310239;22;20357;-88
2022/11/20 03:01:39;;;;;;;15.57;9.60;;;0.70;99.90;;;;;;6284713;22;20326;-88
2022/11/20 03:04:05;;;;;;;21.90;10.05;;;0.70;99.90;;;;;;6260314;22;20003;-83
2022/11/20 03:06:31;;;;;;;17.30;10.20;;;0.70;99.90;;;;;;6283422;22;20003;-83
2022/11/20 03:08:57;;;;;;;16.70;10.70;;;0.70;99.90;;;;;;6283771;22;20418;-83
2022/11/20 03:11:23;;;;;;;19.02;10.02;;;0.70;99.90;;;;;;6283416;22;20096;-83
2022/11/20 03:13:48;;;;;;;18.52;10.25;;;0.60;99.90;;;;;;6283708;22;20057;-83
2022/11/20 03:16:22;;;;;;;15.73;10.00;;;0.60;99.90;;;;;;6258150;22;20061;-83
2022/11/20 03:18:48;;;;;;;16.83;9.77;;;0.60;99.90;;;;;;6309530;22;19996;-83
2022/11/20 03:21:14;;;;;;;18.58;10.18;;;0.60;99.90;;;;;;6316275;22;19992;-87
2022/11/20 03:23:41;;;;;;;18.05;10.60;;;0.60;99.90;;;;;;6311626;22;20000;-88
2022/11/20 03:26:08;;;;;;;19.23;10.30;;;0.60;99.90;;;;;;6310460;22;20004;-88
2022/11/20 03:28:33;;;;;;;16.98;10.15;;;0.60;99.90;;;;;;6310583;22;19999;-88
2022/11/20 03:31:08;;;;;;;16.85;10.25;;;0.50;99.90;;;;;;6259225;22;20007;-88
2022/11/20 03:33:34;;;;;;;16.52;10.13;;;0.60;99.90;;;;;;6310672;22;20002;-88
2022/11/20 03:36:05;;;;;;;15.88;9.07;;;0.60;99.90;;;;;;6258658;22;20003;-88
2022/11/20 03:38:31;;;;;;;;;;;0.50;99.90;;;;;;6285139;22;20000;-83
2022/11/20 03:41:05;;;;;;;15.82;8.70;;;0.50;99.90;;;;;;6310031;22;20229;-83
2022/11/20 03:43:32;;;;;;;15.93;9.82;;;0.40;99.90;;;;;;6309650;22;20330;-83
2022/11/20 03:45:58;;;;;;;15.38;9.25;;;0.20;99.80;;;;;;6309782;22;20078;-83
2022/11/20 03:48:24;;;;;;;16.70;10.50;;;0.10;99.90;;;;;;6309283;22;19995;-83
2022/11/20 03:50:50;;;;;;;17.90;9.95;;;0.10;99.90;;;;;;6283871;22;20014;-83
2022/11/20 03:53:16;;;;;;;16.48;9.65;;;0.10;99.90;;;;;;6309897;22;19999;-83
2022/11/20 03:55:42;;;;;;;16.17;9.60;;;0.10;99.90;;;;;;6258745;22;20030;-83
2022/11/20 03:58:08;;;;;;;16.73;9.48;;;0.10;99.90;;;;;;6309346;22;20003;-82
2022/11/20 04:00:34;;;;;;;15.25;8.70;;;0.20;99.90;;;;;;6309950;22;20410;-83
2022/11/20 04:03:01;;;;;;;16.92;9.55;;;0.20;99.90;;;;;;6309720;22;19999;-83
2022/11/20 04:05:27;;;;;;;17.23;9.38;;;0.20;99.90;;;;;;6283729;22;20426;-83
2022/11/20 04:07:52;;;;;;;16.67;9.85;;;0.20;99.90;;;;;;6284066;22;20011;-83
2022/11/20 04:10:18;;;;;;;16.70;8.88;;;0.20;99.90;;;;;;6311137;22;20045;-86
2022/11/20 04:12:44;;;;;;;15.60;9.20;;;0.20;99.90;;;;;;6258375;22;20003;-86
2022/11/20 04:15:09;;;;;;;14.57;8.70;;;0.20;99.90;;;;;;6283795;22;20003;-86
2022/11/20 04:17:35;;;;;;;16.63;9.85;;;0.20;99.90;;;;;;6309627;22;20010;-86
2022/11/20 04:20:02;;;;;;;18.08;9.88;;;0.20;99.90;;;;;;6310138;22;20007;-86
2022/11/20 04:22:27;;;;;;;17.70;8.85;;;0.20;99.90;;;;;;6309928;22;19999;-86
2022/11/20 04:24:53;;;;;;;16.27;9.73;;;0.20;99.90;;;;;;6309508;22;20382;-86
2022/11/20 04:27:19;;;;;;;18.60;9.82;;;0.20;99.90;;;;;;6284501;22;20003;-86
2022/11/20 04:29:44;;;;;;;16.50;10.45;;;0.10;99.90;;;;;;6283531;22;20025;-86
2022/11/20 04:32:10;;;;;;;18.05;9.98;;;0.20;99.90;;;;;;6283113;22;20418;-86
2022/11/20 04:34:36;;;;;;;17.90;10.75;;;0.20;99.90;;;;;;6308960;22;20029;-87
2022/11/20 04:37:02;;;;;;;14.63;9.18;;;0.10;99.90;;;;;;6283454;22;20078;-86
2022/11/20 04:39:27;;;;;;;16.48;8.60;;;0.20;99.90;;;;;;6283730;22;20322;-86
2022/11/20 04:42:28;;;;;;;16.98;9.52;;;0.10;99.90;;;;;;6283671;22;20007;-86
2022/11/20 04:44:39;;;;;;;14.68;8.80;;;0.10;99.90;;;;;;6309805;22;20015;-83
2022/11/20 04:47:05;;;;;;;17.95;9.38;;;0.10;99.90;;;;;;6258081;22;20046;-83
2022/11/20 04:49:31;;;;;;;16.75;9.95;;;0.10;99.90;;;;;;6283008;22;20007;-88
2022/11/20 04:51:57;;;;;;;14.73;9.02;;;0.10;99.90;;;;;;6257575;22;20011;-87
2022/11/20 04:54:23;;;;;;;16.17;9.32;;;0.00;99.90;;;;;;6283697;22;20035;-88
2022/11/20 04:56:49;;;;;;;16.10;9.40;;;0.00;99.90;;;;;;6309120;22;20015;-87
2022/11/20 04:59:15;;;;;;;15.05;8.98;;;0.00;99.90;;;;;;6258389;22;20003;-87
2022/11/20 05:01:41;;;;;;;15.70;10.25;;;0.00;99.90;;;;;;6285205;22;20006;-87
2022/11/20 05:04:07;;;;;;;17.13;9.90;;;0.00;99.90;;;;;;6310153;22;20000;-88
2022/11/20 05:06:33;;;;;;;17.17;10.25;;;0.00;99.90;;;;;;6309752;22;20011;-87
2022/11/20 05:08:58;;;;;;;16.85;10.38;;;0.00;99.90;;;;;;6309206;22;19999;-88
2022/11/20 05:11:24;;;;;;;16.30;9.10;;;-0.10;99.90;;;;;;6309362;22;20015;-87
2022/11/20 05:13:51;;;;;;;15.13;9.75;;;-0.10;99.90;;;;;;6284295;22;20084;-87
2022/11/20 05:16:20;;;;;;;15.13;9.27;;;0.00;99.90;;;;;;6283078;22;20056;-84
2022/11/20 05:18:46;;;;;;;14.05;9.05;;;-0.10;99.90;;;;;;6308499;22;19999;-82
2022/11/20 05:21:13;;;;;;;16.15;9.52;;;-0.10;99.90;;;;;;6308676;22;19992;-82
2022/11/20 05:23:40;;;;;;;17.45;9.38;;;-0.10;99.90;;;;;;6308706;22;20350;-87
2022/11/20 05:26:08;;;;;;;16.75;9.27;;;-0.10;99.90;;;;;;6309140;22;20000;-88
2022/11/20 05:28:33;;;;;;;15.02;9.32;;;-0.10;99.90;;;;;;6309362;22;20003;-86
2022/11/20 05:31:11;;;;;;;15.25;9.35;;;-0.10;99.90;;;;;;6283978;22;20487;-87
2022/11/20 05:33:40;;;;;;;16.08;9.70;;;-0.10;99.90;;;;;;6309234;22;20003;-83
2022/11/20 05:36:06;;;;;;;15.25;9.57;;;-0.10;99.90;;;;;;6308217;22;19999;-83
2022/11/20 05:38:32;;;;;;;18.50;9.75;;;-0.20;99.90;;;;;;6257820;22;20003;-83
2022/11/20 05:41:08;;;;;;;19.50;10.45;;;-0.20;99.90;;;;;;6308218;22;20098;-83
2022/11/20 05:43:35;;;;;;;15.50;9.07;;;-0.20;99.90;;;;;;6308089;22;20000;-82
2022/11/20 05:46:02;;;;;;;15.75;9.82;;;-0.20;99.90;;;;;;6308172;22;20098;-82
2022/11/20 05:48:27;;;;;;;17.52;10.13;;;-0.20;99.90;;;;;;6308398;22;20070;-83
2022/11/20 05:50:53;;;;;;;15.27;9.10;;;-0.20;99.90;;;;;;6310970;22;19999;-83
2022/11/20 05:53:19;;;;;;;17.25;10.15;;;-0.30;99.90;;;;;;6282794;22;20038;-82
2022/11/20 05:55:44;;;;;;;16.50;9.52;;;-0.30;99.90;;;;;;6283168;22;20003;-82
2022/11/20 05:58:10;;;;;;;16.58;9.48;;;-0.30;99.90;;;;;;6282886;22;20116;-82
2022/11/20 06:00:36;;;;;;;17.75;10.30;;;-0.30;99.90;;;;;;6308087;22;20033;-82
2022/11/20 06:03:02;;;;;;;18.17;10.48;;;-0.30;99.90;;;;;;6280188;22;20050;-82
2022/11/20 06:05:28;;;;;;;19.35;10.23;;;-0.30;99.90;;;;;;6280714;22;20024;-82
2022/11/20 06:07:54;;;;;;;18.40;9.88;;;-0.30;99.90;;;;;;6307518;22;20010;-87
2022/11/20 06:10:19;;;;;;;21.75;11.48;;;-0.30;99.90;;;;;;6256211;22;20022;-86
2022/11/20 06:12:45;;;;;;;18.02;10.70;;;-0.30;99.90;;;;;;6282372;22;20008;-86
2022/11/20 06:15:11;;;;;;;16.88;9.52;;;-0.30;99.90;;;;;;6308196;22;20003;-83
2022/11/20 06:17:36;;;;;;;17.17;9.85;;;-0.30;99.90;;;;;;6307607;22;20010;-83
2022/11/20 06:20:02;;;;;;;18.92;10.43;;;-0.30;99.90;;;;;;6282584;22;20433;-83
2022/11/20 06:22:28;;;;;;;16.20;10.32;;;-0.30;99.90;;;;;;6289026;22;20003;-83
2022/11/20 06:24:54;;;;;;;18.63;11.57;;;-0.30;99.90;;;;;;6269005;22;20003;-87
2022/11/20 06:27:19;;;;;;;18.52;10.50;;;-0.30;99.90;;;;;;6292866;22;20014;-88
2022/11/20 06:29:45;;;;;;;19.77;10.88;;;-0.30;99.90;;;;;;6262746;22;20030;-87
2022/11/20 06:32:11;;;;;;;18.50;10.43;;;-0.30;99.90;;;;;;6282340;22;20004;-87
2022/11/20 06:34:37;;;;;;;18.85;10.55;;;-0.40;99.90;;;;;;6282334;22;20027;-87
2022/11/20 06:37:02;;;;;;;17.63;10.50;;;-0.40;99.90;;;;;;6256665;22;20015;-87
2022/11/20 06:39:28;;;;;;;18.45;9.98;;;-0.30;99.90;;;;;;6282929;22;20094;-87
2022/11/20 06:41:53;;;;;;;18.17;10.40;;;-0.40;99.90;;;;;;6308235;22;20422;-87
2022/11/20 06:44:19;;;;;;;20.05;11.63;;;-0.40;99.90;;;;;;6309375;22;20419;-87
2022/11/20 06:46:45;;;;;;;18.80;10.70;;;-0.40;99.90;;;;;;6309608;22;20010;-87
2022/11/20 06:49:12;;;;;;;16.83;9.63;;;-0.40;99.90;;;;;;6258875;22;20053;-87
2022/11/20 06:51:38;;;;;;;17.27;10.20;;;-0.40;99.90;;;;;;6309563;22;20110;-86
2022/11/20 06:54:04;;;;;;;20.90;11.65;;;-0.40;99.90;;;;;;6283822;22;20010;-87
2022/11/20 06:56:30;;;;;;;17.10;10.20;;;-0.40;99.90;;;;;;6283889;22;20011;-83
2022/11/20 06:58:55;;;;;;;17.35;10.45;;;-0.40;99.90;;;;;;6282256;22;20003;-83
2022/11/20 07:01:21;;;;;;;21.95;11.32;;;-0.40;99.90;;;;;;6307793;22;20011;-83
2022/11/20 07:03:50;;;;;;;18.75;10.90;;;-0.40;99.90;;;;;;6281995;22;20007;-83
2022/11/20 07:06:16;;;;;;;17.20;10.65;;;-0.40;99.90;;;;;;6307987;22;20430;-83
2022/11/20 07:08:42;;;;;;;19.88;11.07;;;-0.50;99.90;;;;;;6307737;22;20088;-83
2022/11/20 07:11:08;;;;;;;16.85;9.95;;;-0.50;99.90;;;;;;6281217;22;20342;-83
2022/11/20 07:13:34;;;;;;;18.27;10.25;;;-0.50;99.90;;;;;;6282152;22;20422;-83
2022/11/20 07:16:02;;;;;;;18.90;10.27;;;-0.50;99.90;;;;;;6307697;22;20026;-83
2022/11/20 07:18:28;;;;;;;20.40;10.25;;;-0.50;99.90;;;;;;6308283;22;20003;-83
2022/11/20 07:20:54;;;;;;;18.25;11.02;;;-0.50;99.90;;;;;;6307579;22;20004;-83
2022/11/20 07:23:19;;;;;;;19.13;11.13;;;-0.50;99.90;;;;;;6281770;22;20007;-83
2022/11/20 07:25:45;;;;;;;18.30;10.30;;;-0.50;99.90;;;;;;6282127;22;20013;-82
2022/11/20 07:28:11;;;;;;;20.88;10.82;;;-0.50;99.90;;;;;;6281428;22;20071;-83
2022/11/20 07:30:37;;;;;;;17.33;10.57;;;-0.50;99.90;;;;;;6282425;22;20007;-82
2022/11/20 07:33:03;;;;;;;18.30;10.93;;;-0.50;99.90;;;;;;6281907;22;20041;-82
2022/11/20 07:35:28;;;;;;;21.15;12.05;;;-0.50;99.90;;;;;;6307344;22;20007;-82
2022/11/20 07:37:54;;;;;;;22.85;12.88;;;-0.50;99.90;;;;;;6256163;22;20008;-82
2022/11/20 07:40:20;;;;;;;19.90;12.40;;;-0.50;99.90;;;;;;6308710;22;19999;-82
2022/11/20 07:42:50;;;;;;;18.48;11.25;;;-0.50;99.90;;;;;;6283291;22;20144;-83
2022/11/20 07:45:20;;;;;;;19.73;11.77;;;-0.50;99.90;;;;;;6308994;22;20010;-82
2022/11/20 07:47:45;;;;;;;26.58;12.98;;;-0.40;99.90;;;;;;6308255;22;20089;-82
2022/11/20 07:50:11;;;;;;;23.90;13.43;;;-0.40;99.90;;;;;;6309279;22;20003;-82
2022/11/20 07:52:37;;;;;;;20.30;12.13;;;-0.40;99.90;;;;;;6283235;22;20007;-82
2022/11/20 07:55:03;;;;;;;21.55;12.98;;;-0.40;99.90;;;;;;6308808;22;20338;-82
2022/11/20 07:57:30;;;;;;;23.35;13.95;;;-0.40;99.90;;;;;;6283039;22;20011;-81
2022/11/20 07:59:55;;;;;;;23.00;13.48;;;-0.40;99.90;;;;;;6284260;22;20299;-83
2022/11/20 08:02:21;;;;;;;21.20;12.48;;;-0.40;99.90;;;;;;6308757;22;20003;-81
2022/11/20 08:04:47;;;;;;;21.80;13.13;;;-0.40;99.90;;;;;;6310423;22;20000;-83
2022/11/20 08:07:13;;;;;;;24.60;12.95;;;-0.30;99.90;;;;;;6286054;22;20007;-83
2022/11/20 08:09:38;;;;;;;23.08;13.73;;;-0.30;99.90;;;;;;6310030;22;20000;-83
2022/11/20 08:14:49;;;;;;;23.63;13.05;;;-0.30;99.90;;;;;;6287864;22;20054;-84
2022/11/20 08:17:14;;;;;;;21.95;13.23;;;-0.30;99.90;;;;;;6283057;22;20011;-84
2022/11/20 08:19:40;;;;;;;21.77;12.65;;;-0.30;99.90;;;;;;6283213;22;20094;-85
2022/11/20 08:22:06;;;;;;;22.95;13.63;;;-0.30;99.90;;;;;;6283649;22;20061;-85
2022/11/20 08:24:31;;;;;;;22.73;13.07;;;-0.20;99.90;;;;;;6283524;22;20006;-85
2022/11/20 08:26:58;;;;;;;23.85;13.93;;;-0.20;99.90;;;;;;6258281;22;20013;-86
2022/11/20 08:29:25;;;;;;;22.13;13.35;;;-0.20;99.90;;;;;;6309073;22;20011;-85
2022/11/20 08:31:51;;;;;;;26.80;14.57;;;-0.20;99.90;;;;;;6283826;22;20030;-85
2022/11/20 08:34:16;;;;;;;22.55;13.40;;;-0.20;99.90;;;;;;6283627;22;20003;-85
2022/11/20 08:36:42;;;;;;;26.77;15.30;;;-0.20;99.90;;;;;;6283918;22;20014;-88
2022/11/20 08:39:11;;;;;;;24.25;14.40;;;-0.20;99.90;;;;;;6284911;22;20422;-88
2022/11/20 08:41:36;;;;;;;23.85;13.70;;;-0.10;99.90;;;;;;6284678;22;20076;-88
2022/11/20 08:44:04;;;;;;;24.10;13.57;;;-0.10;99.90;;;;;;6283810;22;20421;-89
2022/11/20 08:46:41;;;;;;;23.58;13.70;;;-0.10;99.90;;;;;;6309973;22;19999;-89
2022/11/20 08:49:11;;;;;;;25.08;14.65;;;-0.10;99.90;;;;;;6284279;22;20007;-88
2022/11/20 08:51:41;;;;;;;25.20;14.15;;;-0.10;99.90;;;;;;6309980;22;20003;-89
2022/11/20 08:54:07;;;;;;;23.13;13.73;;;-0.10;99.90;;;;;;6309502;22;20385;-85
2022/11/20 08:56:33;;;;;;;25.67;13.93;;;0.00;99.90;;;;;;6308907;22;20026;-85
2022/11/20 08:58:59;;;;;;;24.27;14.00;;;0.00;99.90;;;;;;6283445;22;20060;-85
2022/11/20 09:01:26;;;;;;;27.10;15.45;;;0.00;99.90;;;;;;6308886;22;20007;-85
2022/11/20 09:03:52;;;;;;;25.10;14.80;;;-0.10;99.90;;;;;;6282520;22;20086;-85
2022/11/20 09:06:18;;;;;;;30.73;15.52;;;-0.10;99.90;;;;;;6282382;22;20013;-84
2022/11/20 09:08:44;;;;;;;26.38;13.85;;;-0.10;99.90;;;;;;6282253;22;20003;-83
2022/11/20 09:11:10;;;;;;;22.65;14.25;;;0.00;99.90;;;;;;6308036;22;20081;-83
2022/11/20 09:13:37;;;;;;;26.33;14.88;;;0.00;99.90;;;;;;6310340;22;20007;-83
2022/11/20 09:16:06;;;;;;;22.90;14.40;;;-0.10;99.90;;;;;;6308738;22;20031;-83
2022/11/20 09:18:32;;;;;;;25.90;14.48;;;-0.10;99.90;;;;;;6307855;22;20373;-85
2022/11/20 09:21:03;;;;;;;25.65;15.07;;;0.00;99.90;;;;;;6281874;22;20038;-83
2022/11/20 09:23:33;;;;;;;26.05;14.88;;;0.00;99.90;;;;;;6305962;22;20002;-81
2022/11/20 09:26:05;;;;;;;24.42;14.55;;;0.00;99.90;;;;;;6307054;22;20004;-82
2022/11/20 09:28:31;;;;;;;24.08;14.05;;;0.10;99.90;;;;;;6308446;22;20010;-81
2022/11/20 09:30:57;;;;;;;26.50;14.40;;;0.10;99.90;;;;;;6309015;22;20420;-81
2022/11/20 09:33:23;;;;;;;24.98;15.50;;;0.10;99.90;;;;;;6308187;22;19999;-81
2022/11/20 09:35:48;;;;;;;22.38;13.40;;;0.10;99.90;;;;;;6283897;22;20003;-81
2022/11/20 09:38:14;;;;;;;26.98;15.48;;;0.10;99.90;;;;;;6307895;22;20141;-81
2022/11/20 09:41:03;;;;;;;25.20;14.40;;;0.10;99.90;;;;;;6307443;22;20015;-81
2022/11/20 09:43:35;;;;;;;24.08;14.77;;;0.10;99.90;;;;;;6309080;22;19999;-82
2022/11/20 09:46:31;;;;;;;27.48;16.40;;;0.10;99.90;;;;;;6308809;22;20056;-86
2022/11/20 09:49:22;;;;;;;29.23;16.23;;;0.20;99.90;;;;;;6307654;22;19999;-82
2022/11/20 09:52:43;;;;;;;24.90;14.50;;;0.30;99.90;;;;;;6309821;22;20004;-82
2022/11/20 09:55:12;;;;;;;28.55;16.70;;;0.30;99.90;;;;;;6308442;22;20068;-82
2022/11/20 09:57:44;;;;;;;24.52;14.68;;;0.30;99.90;;;;;;6310333;22;20022;-81
2022/11/20 10:00:12;;;;;;;35.45;18.17;;;0.30;99.90;;;;;;6308845;22;20003;-82
2022/11/20 10:03:01;;;;;;;26.73;16.63;;;0.30;99.90;;;;;;6307129;22;19999;-81
2022/11/20 10:05:35;;;;;;;27.00;14.98;;;0.40;99.90;;;;;;6306883;22;20000;-82
2022/11/20 10:08:29;;;;;;;29.42;16.80;;;0.40;99.90;;;;;;6309293;22;20003;-82
2022/11/20 10:11:15;;;;;;;26.60;15.68;;;0.40;99.90;;;;;;6307279;22;20030;-82
2022/11/20 10:13:56;;;;;;;29.05;16.63;;;0.40;99.90;;;;;;6307801;22;20046;-83
2022/11/20 10:16:52;;;;;;;29.90;17.35;;;0.40;99.90;;;;;;6307891;22;20086;-81
2022/11/20 10:20:03;;;;;;;31.40;18.05;;;0.50;99.90;;;;;;6306101;22;20447;-82
2022/11/20 10:23:04;;;;;;;28.73;17.20;;;0.50;99.90;;;;;;6188016;23;20000;-82
2022/11/20 10:25:42;;;;;;;29.05;16.50;;;0.50;99.90;;;;;;6306093;22;20018;-84
2022/11/20 10:28:07;;;;;;;32.35;16.08;;;0.50;99.90;;;;;;6307116;22;20432;-83
2022/11/20 10:30:38;;;;;;;31.33;16.55;;;0.60;99.90;;;;;;6308491;22;20071;-86
2022/11/20 10:33:17;;;;;;;29.90;18.13;;;0.60;99.90;;;;;;6308455;22;20413;-83
2022/11/20 10:36:08;;;;;;;27.55;16.02;;;0.60;99.90;;;;;;6306552;22;20053;-83
2022/11/20 10:38:44;;;;;;;33.22;19.05;;;0.60;99.90;;;;;;6309125;22;20077;-84
2022/11/20 10:41:25;;;;;;;33.83;18.00;;;0.70;99.90;;;;;;6307058;22;19999;-85
2022/11/20 10:44:00;;;;;;;30.10;17.75;;;0.70;99.90;;;;;;6307797;22;20000;-84
2022/11/20 10:46:29;;;;;;;33.28;18.00;;;0.70;99.90;;;;;;6305770;22;20022;-86
2022/11/20 10:48:55;;;;;;;35.60;19.25;;;0.80;99.90;;;;;;6280064;22;20329;-86
2022/11/20 10:51:50;;;;;;;30.77;18.55;;;0.80;99.90;;;;;;6253401;22;20004;-86
2022/11/20 10:54:44;;;;;;;29.77;17.30;;;0.80;99.90;;;;;;6300711;22;20310;-86
2022/11/20 10:57:46;;;;;;;29.33;16.38;;;0.90;99.90;;;;;;6306582;22;20007;-88
2022/11/20 11:00:13;;;;;;;29.75;17.08;;;1.00;99.90;;;;;;6306522;22;19999;-87
2022/11/20 11:02:45;;;;;;;33.83;19.10;;;0.90;99.90;;;;;;6306936;22;20003;-86
2022/11/20 11:05:34;;;;;;;28.45;18.08;;;1.00;99.90;;;;;;6307866;22;19999;-89
2022/11/20 11:08:00;;;;;;;30.17;18.65;;;1.00;99.90;;;;;;6308691;22;19999;-87
2022/11/20 11:10:42;;;;;;;31.67;19.70;;;1.10;99.90;;;;;;6306814;22;20082;-86
2022/11/20 11:13:29;;;;;;;35.22;18.77;;;1.10;99.90;;;;;;6306670;22;20045;-86
2022/11/20 11:15:58;;;;;;;30.88;18.77;;;1.10;99.90;;;;;;6310289;22;19995;-87
2022/11/20 11:18:31;;;;;;;31.85;20.08;;;1.10;99.90;;;;;;6308873;22;20094;-87
2022/11/20 11:20:59;;;;;;;31.58;19.92;;;1.20;99.90;;;;;;6308807;22;20006;-88
2022/11/20 11:23:38;;;;;;;34.78;20.67;;;1.20;99.90;;;;;;6318164;22;20006;-87
2022/11/20 11:26:17;;;;;;;34.28;21.05;;;1.30;99.90;;;;;;6311561;22;20421;-87
2022/11/20 11:29:03;;;;;;;39.65;21.95;;;1.30;99.90;;;;;;6308853;22;19995;-88
2022/11/20 11:31:34;;;;;;;36.00;19.73;;;1.30;99.90;;;;;;6308859;22;19999;-88
2022/11/20 11:34:08;;;;;;;30.13;18.90;;;1.40;99.90;;;;;;6310769;22;20045;-87
2022/11/20 11:36:35;;;;;;;34.20;19.35;;;1.40;99.90;;;;;;6310314;22;20030;-88
2022/11/20 11:39:41;;;;;;;31.15;18.98;;;1.50;99.90;;;;;;6309169;22;20006;-88
2022/11/20 11:42:04;;;;;;;36.03;19.45;;;1.50;99.90;;;;;;6308321;22;20451;-88
2022/11/20 11:47:31;;;;;;;29.60;17.77;;;1.60;99.90;;;;;;6310166;22;20379;-88
2022/11/20 11:50:09;;;;;;;29.17;18.70;;;1.70;99.90;;;;;;6308967;22;19999;-88
2022/11/20 11:53:04;;;;;;;32.20;18.42;;;1.70;99.90;;;;;;6309147;22;20011;-88
2022/11/20 11:55:47;;;;;;;36.10;21.70;;;1.70;99.90;;;;;;6298164;22;20429;-88
2022/11/20 11:58:33;;;;;;;34.58;20.45;;;1.70;99.90;;;;;;6329491;22;20055;-89
2022/11/20 12:01:40;;;;;;;34.10;20.20;;;1.80;99.90;;;;;;6332495;22;20003;-89
2022/11/20 12:04:17;;;;;;;30.35;18.80;;;1.80;99.90;;;;;;6231135;22;20015;-88
2022/11/20 12:07:16;;;;;;;34.72;19.20;;;1.80;99.90;;;;;;6331921;22;20003;-88
2022/11/20 12:09:52;;;;;;;28.40;16.83;;;1.80;99.90;;;;;;6327402;22;19999;-86
2022/11/20 12:12:32;;;;;;;39.00;22.77;;;1.90;99.90;;;;;;6313348;22;20023;-88
2022/11/20 12:15:02;;;;;;;32.45;19.67;;;1.90;99.90;;;;;;6309065;22;19999;-88
2022/11/20 12:17:55;;;;;;;30.67;19.42;;;1.90;99.90;;;;;;6317526;22;20025;-89
2022/11/20 12:20:41;;;;;;;32.30;19.85;;;1.90;99.90;;;;;;6313069;22;20007;-87
2022/11/20 12:23:25;;;;;;;34.63;19.67;;;1.90;99.90;;;;;;6328383;22;20004;-88
2022/11/20 12:26:03;;;;;;;37.15;21.55;;;2.00;99.90;;;;;;6333110;22;20022;-88
2022/11/20 12:28:41;;;;;;;35.53;21.95;;;2.00;99.90;;;;;;6335311;22;20026;-89
2022/11/20 12:31:32;;;;;;;;;;;;;;;;;;;;;
2022/11/20 12:34:22;;;;;;;37.35;22.00;;;2.10;99.90;;;;;;6332781;22;20003;-89
2022/11/20 12:37:01;;;;;;;36.08;21.75;;;2.10;99.90;;;;;;6331977;22;20003;-89
2022/11/20 12:39:35;;;;;;;42.15;24.17;;;2.10;99.90;;;;;;6324157;22;20032;-91
2022/11/20 12:45:35;;;;;;;39.10;25.20;;;2.20;99.90;;;;;;6313386;22;20010;-90
2022/11/20 12:48:19;;;;;;;40.00;24.60;;;2.30;99.90;;;;;;6309202;22;20013;-89
2022/11/20 12:51:03;;;;;;;39.75;25.35;;;2.30;99.90;;;;;;6308531;22;20006;-87
2022/11/20 12:54:04;;;;;;;38.55;23.85;;;2.30;99.90;;;;;;6308229;22;20004;-88
2022/11/20 12:56:46;;;;;;;39.35;23.50;;;2.40;99.90;;;;;;6242826;22;20083;-88
2022/11/20 12:59:49;;;;;;;45.20;27.83;;;2.40;99.90;;;;;;6309068;22;20325;-87
2022/11/20 13:02:46;;;;;;;42.80;27.13;;;2.40;99.90;;;;;;6308540;22;20003;-88
2022/11/20 13:05:20;;;;;;;39.55;25.40;;;2.40;99.90;;;;;;6308498;22;20368;-88
2022/11/20 13:07:47;;;;;;;42.65;26.60;;;2.40;99.90;;;;;;6308334;22;20008;-89